sensor_id;sensor_type;location;lat;lon;timestamp;temperature;humidity
61807;DHT22;47726;52.766;6.606;2022-08-03T00:01:37;20.70;99.90
61807;DHT22;47726;52.766;6.606;2022-08-03T00:04:05;20.70;99.90
61807;DHT22;47726;52.766;6.606;2022-08-03T00:06:31;20.70;99.90
61807;DHT22;47726;52.766;6.606;2022-08-03T00:08:57;20.70;99.90
61807;DHT22;47726;52.766;6.606;2022-08-03T00:11:22;20.60;99.90
61807;DHT22;47726;52.766;6.606;2022-08-03T00:13:49;20.60;99.90
61807;DHT22;47726;52.766;6.606;2022-08-03T00:16:15;20.60;99.90
61807;DHT22;47726;52.766;6.606;2022-08-03T00:18:41;20.60;99.90
61807;DHT22;47726;52.766;6.606;2022-08-03T00:21:07;20.50;99.90
61807;DHT22;47726;52.766;6.606;2022-08-03T00:23:33;20.50;99.90
61807;DHT22;47726;52.766;6.606;2022-08-03T00:25:59;20.50;99.90
61807;DHT22;47726;52.766;6.606;2022-08-03T00:28:25;20.40;99.90
61807;DHT22;47726;52.766;6.606;2022-08-03T00:30:50;20.40;99.90
61807;DHT22;47726;52.766;6.606;2022-08-03T00:33:16;20.40;99.90
61807;DHT22;47726;52.766;6.606;2022-08-03T00:35:42;20.30;99.90
61807;DHT22;47726;52.766;6.606;2022-08-03T00:38:08;20.30;99.90
61807;DHT22;47726;52.766;6.606;2022-08-03T00:40:34;20.30;99.90
61807;DHT22;47726;52.766;6.606;2022-08-03T00:43:02;20.20;99.90
61807;DHT22;47726;52.766;6.606;2022-08-03T00:45:31;20.20;99.90
61807;DHT22;47726;52.766;6.606;2022-08-03T00:47:57;20.20;99.90
61807;DHT22;47726;52.766;6.606;2022-08-03T00:50:25;20.10;99.90
61807;DHT22;47726;52.766;6.606;2022-08-03T00:52:53;20.10;99.90
61807;DHT22;47726;52.766;6.606;2022-08-03T00:55:19;20.10;99.90
61807;DHT22;47726;52.766;6.606;2022-08-03T00:57:45;20.10;99.90
61807;DHT22;47726;52.766;6.606;2022-08-03T01:00:12;20.00;99.90
61807;DHT22;47726;52.766;6.606;2022-08-03T01:02:39;20.00;99.90
61807;DHT22;47726;52.766;6.606;2022-08-03T01:05:05;19.90;99.90
61807;DHT22;47726;52.766;6.606;2022-08-03T01:12:37;19.90;99.90
61807;DHT22;47726;52.766;6.606;2022-08-03T01:15:12;19.80;99.90
61807;DHT22;47726;52.766;6.606;2022-08-03T01:18:02;19.80;99.90
61807;DHT22;47726;52.766;6.606;2022-08-03T01:20:35;19.80;99.90
61807;DHT22;47726;52.766;6.606;2022-08-03T01:30:55;19.70;99.90
61807;DHT22;47726;52.766;6.606;2022-08-03T01:33:29;19.70;99.90
61807;DHT22;47726;52.766;6.606;2022-08-03T01:36:00;19.70;99.90
61807;DHT22;47726;52.766;6.606;2022-08-03T01:38:38;19.70;99.90
61807;DHT22;47726;52.766;6.606;2022-08-03T01:41:19;19.70;99.90
61807;DHT22;47726;52.766;6.606;2022-08-03T01:43:47;19.70;99.90
61807;DHT22;47726;52.766;6.606;2022-08-03T01:46:15;19.60;99.90
61807;DHT22;47726;52.766;6.606;2022-08-03T01:48:42;19.60;99.90
61807;DHT22;47726;52.766;6.606;2022-08-03T01:51:09;19.60;99.90
61807;DHT22;47726;52.766;6.606;2022-08-03T01:53:37;19.60;99.90
61807;DHT22;47726;52.766;6.606;2022-08-03T01:56:08;19.60;99.90
61807;DHT22;47726;52.766;6.606;2022-08-03T01:58:35;19.60;99.90
61807;DHT22;47726;52.766;6.606;2022-08-03T02:01:02;19.60;99.90
61807;DHT22;47726;52.766;6.606;2022-08-03T02:03:31;19.50;99.90
61807;DHT22;47726;52.766;6.606;2022-08-03T02:05:58;19.50;99.90
61807;DHT22;47726;52.766;6.606;2022-08-03T02:08:26;19.50;99.90
61807;DHT22;47726;52.766;6.606;2022-08-03T02:10:56;19.40;99.90
61807;DHT22;47726;52.766;6.606;2022-08-03T02:13:23;19.40;99.90
61807;DHT22;47726;52.766;6.606;2022-08-03T02:15:50;19.40;99.90
61807;DHT22;47726;52.766;6.606;2022-08-03T02:18:17;19.30;99.90
61807;DHT22;47726;52.766;6.606;2022-08-03T02:20:44;19.30;99.90
61807;DHT22;47726;52.766;6.606;2022-08-03T02:23:11;19.30;99.90
61807;DHT22;47726;52.766;6.606;2022-08-03T02:25:49;19.30;99.90
61807;DHT22;47726;52.766;6.606;2022-08-03T02:28:19;19.30;99.90
61807;DHT22;47726;52.766;6.606;2022-08-03T02:30:49;19.30;99.90
61807;DHT22;47726;52.766;6.606;2022-08-03T02:33:20;19.20;99.90
61807;DHT22;47726;52.766;6.606;2022-08-03T02:35:50;19.20;99.90
61807;DHT22;47726;52.766;6.606;2022-08-03T02:38:19;19.20;99.90
61807;DHT22;47726;52.766;6.606;2022-08-03T02:40:46;19.20;99.90
61807;DHT22;47726;52.766;6.606;2022-08-03T02:43:16;19.20;99.90
61807;DHT22;47726;52.766;6.606;2022-08-03T02:45:45;19.20;99.90
61807;DHT22;47726;52.766;6.606;2022-08-03T02:48:16;19.10;99.90
61807;DHT22;47726;52.766;6.606;2022-08-03T02:50:43;19.10;99.90
61807;DHT22;47726;52.766;6.606;2022-08-03T02:53:10;19.10;99.90
61807;DHT22;47726;52.766;6.606;2022-08-03T02:55:38;19.10;99.90
61807;DHT22;47726;52.766;6.606;2022-08-03T02:58:04;19.10;99.90
61807;DHT22;47726;52.766;6.606;2022-08-03T03:00:32;19.00;99.90
61807;DHT22;47726;52.766;6.606;2022-08-03T03:03:00;19.00;99.90
61807;DHT22;47726;52.766;6.606;2022-08-03T03:05:27;19.00;99.90
61807;DHT22;47726;52.766;6.606;2022-08-03T03:07:54;19.00;99.90
61807;DHT22;47726;52.766;6.606;2022-08-03T03:10:24;19.00;99.90
61807;DHT22;47726;52.766;6.606;2022-08-03T03:12:54;18.90;99.90
61807;DHT22;47726;52.766;6.606;2022-08-03T03:15:21;18.90;99.90
61807;DHT22;47726;52.766;6.606;2022-08-03T03:17:48;18.90;99.90
61807;DHT22;47726;52.766;6.606;2022-08-03T03:20:16;18.90;99.90
61807;DHT22;47726;52.766;6.606;2022-08-03T03:22:43;18.90;99.90
61807;DHT22;47726;52.766;6.606;2022-08-03T03:25:09;18.90;99.90
61807;DHT22;47726;52.766;6.606;2022-08-03T03:27:35;18.90;99.90
61807;DHT22;47726;52.766;6.606;2022-08-03T03:30:02;18.80;99.90
61807;DHT22;47726;52.766;6.606;2022-08-03T03:32:28;18.80;99.90
61807;DHT22;47726;52.766;6.606;2022-08-03T03:34:56;18.80;99.90
61807;DHT22;47726;52.766;6.606;2022-08-03T03:37:25;18.80;99.90
61807;DHT22;47726;52.766;6.606;2022-08-03T03:39:53;18.80;99.90
61807;DHT22;47726;52.766;6.606;2022-08-03T03:42:19;18.80;99.90
61807;DHT22;47726;52.766;6.606;2022-08-03T03:44:45;18.80;99.90
61807;DHT22;47726;52.766;6.606;2022-08-03T03:47:11;18.80;99.90
61807;DHT22;47726;52.766;6.606;2022-08-03T03:49:37;18.80;99.90
61807;DHT22;47726;52.766;6.606;2022-08-03T03:52:03;18.70;99.90
61807;DHT22;47726;52.766;6.606;2022-08-03T03:54:39;18.70;99.90
61807;DHT22;47726;52.766;6.606;2022-08-03T03:57:05;18.80;99.90
61807;DHT22;47726;52.766;6.606;2022-08-03T03:59:31;18.70;99.90
61807;DHT22;47726;52.766;6.606;2022-08-03T04:01:57;18.70;99.90
61807;DHT22;47726;52.766;6.606;2022-08-03T04:04:23;18.70;99.90
61807;DHT22;47726;52.766;6.606;2022-08-03T04:07:07;18.70;99.90
61807;DHT22;47726;52.766;6.606;2022-08-03T04:09:52;18.70;99.90
61807;DHT22;47726;52.766;6.606;2022-08-03T04:12:38;18.70;99.90
61807;DHT22;47726;52.766;6.606;2022-08-03T04:15:05;18.70;99.90
61807;DHT22;47726;52.766;6.606;2022-08-03T04:17:32;18.60;99.90
61807;DHT22;47726;52.766;6.606;2022-08-03T04:19:59;18.60;99.90
61807;DHT22;47726;52.766;6.606;2022-08-03T04:22:26;18.60;99.90
61807;DHT22;47726;52.766;6.606;2022-08-03T04:25:03;18.60;99.90
61807;DHT22;47726;52.766;6.606;2022-08-03T04:27:35;18.60;99.90
61807;DHT22;47726;52.766;6.606;2022-08-03T04:30:03;18.60;99.90
61807;DHT22;47726;52.766;6.606;2022-08-03T04:32:29;18.60;99.90
61807;DHT22;47726;52.766;6.606;2022-08-03T04:34:56;18.60;99.90
61807;DHT22;47726;52.766;6.606;2022-08-03T04:37:37;18.60;99.90
61807;DHT22;47726;52.766;6.606;2022-08-03T04:40:07;18.60;99.90
61807;DHT22;47726;52.766;6.606;2022-08-03T04:42:34;18.70;99.90
61807;DHT22;47726;52.766;6.606;2022-08-03T04:45:02;18.70;99.90
61807;DHT22;47726;52.766;6.606;2022-08-03T04:47:31;18.60;99.90
61807;DHT22;47726;52.766;6.606;2022-08-03T04:49:58;18.70;99.90
61807;DHT22;47726;52.766;6.606;2022-08-03T04:52:24;18.70;99.90
61807;DHT22;47726;52.766;6.606;2022-08-03T04:54:50;18.70;99.90
61807;DHT22;47726;52.766;6.606;2022-08-03T04:57:17;18.70;99.90
61807;DHT22;47726;52.766;6.606;2022-08-03T04:59:43;18.70;99.90
61807;DHT22;47726;52.766;6.606;2022-08-03T05:02:09;18.70;99.90
61807;DHT22;47726;52.766;6.606;2022-08-03T05:04:35;18.70;99.90
61807;DHT22;47726;52.766;6.606;2022-08-03T05:07:02;18.70;99.90
61807;DHT22;47726;52.766;6.606;2022-08-03T05:09:28;18.70;99.90
61807;DHT22;47726;52.766;6.606;2022-08-03T05:11:54;18.80;99.90
61807;DHT22;47726;52.766;6.606;2022-08-03T05:14:20;18.80;99.90
61807;DHT22;47726;52.766;6.606;2022-08-03T05:16:45;18.80;99.90
61807;DHT22;47726;52.766;6.606;2022-08-03T05:19:11;18.80;99.90
61807;DHT22;47726;52.766;6.606;2022-08-03T05:21:37;18.90;99.90
61807;DHT22;47726;52.766;6.606;2022-08-03T05:24:02;18.90;99.90
61807;DHT22;47726;52.766;6.606;2022-08-03T05:26:28;18.90;99.90
61807;DHT22;47726;52.766;6.606;2022-08-03T05:28:54;18.90;99.90
61807;DHT22;47726;52.766;6.606;2022-08-03T05:31:19;19.00;99.90
61807;DHT22;47726;52.766;6.606;2022-08-03T05:33:45;19.00;99.90
61807;DHT22;47726;52.766;6.606;2022-08-03T05:36:13;19.10;99.90
61807;DHT22;47726;52.766;6.606;2022-08-03T05:38:38;19.10;99.90
61807;DHT22;47726;52.766;6.606;2022-08-03T05:41:04;19.20;99.90
61807;DHT22;47726;52.766;6.606;2022-08-03T05:43:30;19.20;99.90
61807;DHT22;47726;52.766;6.606;2022-08-03T05:45:56;19.30;99.90
61807;DHT22;47726;52.766;6.606;2022-08-03T05:48:23;19.40;99.90
61807;DHT22;47726;52.766;6.606;2022-08-03T05:50:49;19.40;99.90
61807;DHT22;47726;52.766;6.606;2022-08-03T05:53:14;19.40;99.90
61807;DHT22;47726;52.766;6.606;2022-08-03T05:55:40;19.50;99.90
61807;DHT22;47726;52.766;6.606;2022-08-03T05:58:06;19.60;99.90
61807;DHT22;47726;52.766;6.606;2022-08-03T06:00:31;19.60;99.90
61807;DHT22;47726;52.766;6.606;2022-08-03T06:02:57;19.80;99.90
61807;DHT22;47726;52.766;6.606;2022-08-03T06:05:23;19.90;99.90
61807;DHT22;47726;52.766;6.606;2022-08-03T06:07:51;20.10;99.90
61807;DHT22;47726;52.766;6.606;2022-08-03T06:10:17;20.10;99.90
61807;DHT22;47726;52.766;6.606;2022-08-03T06:12:42;20.30;99.90
61807;DHT22;47726;52.766;6.606;2022-08-03T06:15:09;20.40;99.90
61807;DHT22;47726;52.766;6.606;2022-08-03T06:17:50;20.50;99.90
61807;DHT22;47726;52.766;6.606;2022-08-03T06:20:18;20.70;99.90
61807;DHT22;47726;52.766;6.606;2022-08-03T06:22:45;20.90;99.90
61807;DHT22;47726;52.766;6.606;2022-08-03T06:25:11;21.00;99.90
61807;DHT22;47726;52.766;6.606;2022-08-03T06:27:37;21.10;99.90
61807;DHT22;47726;52.766;6.606;2022-08-03T06:30:05;21.20;99.90
61807;DHT22;47726;52.766;6.606;2022-08-03T06:32:31;21.30;99.90
61807;DHT22;47726;52.766;6.606;2022-08-03T06:34:58;21.30;99.90
61807;DHT22;47726;52.766;6.606;2022-08-03T06:37:24;21.50;99.90
61807;DHT22;47726;52.766;6.606;2022-08-03T06:39:51;21.50;99.90
61807;DHT22;47726;52.766;6.606;2022-08-03T06:42:17;21.70;99.90
61807;DHT22;47726;52.766;6.606;2022-08-03T06:44:43;21.80;99.90
61807;DHT22;47726;52.766;6.606;2022-08-03T06:47:08;21.90;99.90
61807;DHT22;47726;52.766;6.606;2022-08-03T06:49:34;22.00;99.90
61807;DHT22;47726;52.766;6.606;2022-08-03T06:52:00;22.00;99.90
61807;DHT22;47726;52.766;6.606;2022-08-03T06:54:26;22.10;99.90
61807;DHT22;47726;52.766;6.606;2022-08-03T06:56:51;22.10;99.90
61807;DHT22;47726;52.766;6.606;2022-08-03T06:59:18;22.10;99.90
61807;DHT22;47726;52.766;6.606;2022-08-03T07:01:44;22.20;99.90
61807;DHT22;47726;52.766;6.606;2022-08-03T07:04:09;22.20;99.90
61807;DHT22;47726;52.766;6.606;2022-08-03T07:06:36;22.20;99.90
61807;DHT22;47726;52.766;6.606;2022-08-03T07:09:02;22.30;99.90
61807;DHT22;47726;52.766;6.606;2022-08-03T07:11:28;22.40;99.90
61807;DHT22;47726;52.766;6.606;2022-08-03T07:13:54;22.40;99.90
61807;DHT22;47726;52.766;6.606;2022-08-03T07:16:21;22.50;99.90
61807;DHT22;47726;52.766;6.606;2022-08-03T07:18:46;22.70;99.90
61807;DHT22;47726;52.766;6.606;2022-08-03T07:21:12;22.80;99.90
61807;DHT22;47726;52.766;6.606;2022-08-03T07:23:37;22.80;99.90
61807;DHT22;47726;52.766;6.606;2022-08-03T07:26:03;22.90;99.90
61807;DHT22;47726;52.766;6.606;2022-08-03T07:28:29;23.00;99.90
61807;DHT22;47726;52.766;6.606;2022-08-03T07:30:55;23.10;99.90
61807;DHT22;47726;52.766;6.606;2022-08-03T07:33:21;23.30;99.90
61807;DHT22;47726;52.766;6.606;2022-08-03T07:35:46;23.40;99.90
61807;DHT22;47726;52.766;6.606;2022-08-03T07:38:12;23.40;99.90
61807;DHT22;47726;52.766;6.606;2022-08-03T07:40:38;23.60;99.90
61807;DHT22;47726;52.766;6.606;2022-08-03T07:43:03;23.70;99.90
61807;DHT22;47726;52.766;6.606;2022-08-03T07:45:32;23.80;99.90
61807;DHT22;47726;52.766;6.606;2022-08-03T07:47:58;24.00;99.90
61807;DHT22;47726;52.766;6.606;2022-08-03T07:50:24;24.10;99.90
61807;DHT22;47726;52.766;6.606;2022-08-03T07:52:50;24.20;99.90
61807;DHT22;47726;52.766;6.606;2022-08-03T07:55:22;24.30;99.90
61807;DHT22;47726;52.766;6.606;2022-08-03T07:58:08;24.50;99.90
61807;DHT22;47726;52.766;6.606;2022-08-03T08:00:37;24.60;99.90
61807;DHT22;47726;52.766;6.606;2022-08-03T08:03:03;24.70;99.90
61807;DHT22;47726;52.766;6.606;2022-08-03T08:05:29;24.90;99.90
61807;DHT22;47726;52.766;6.606;2022-08-03T08:07:55;25.10;99.90
61807;DHT22;47726;52.766;6.606;2022-08-03T08:10:20;25.30;99.90
61807;DHT22;47726;52.766;6.606;2022-08-03T08:12:46;25.50;99.90
61807;DHT22;47726;52.766;6.606;2022-08-03T08:15:12;25.80;99.90
61807;DHT22;47726;52.766;6.606;2022-08-03T08:17:49;25.80;99.90
61807;DHT22;47726;52.766;6.606;2022-08-03T08:20:17;25.90;99.90
61807;DHT22;47726;52.766;6.606;2022-08-03T08:22:43;26.10;99.90
61807;DHT22;47726;52.766;6.606;2022-08-03T08:25:08;26.20;99.90
61807;DHT22;47726;52.766;6.606;2022-08-03T08:27:40;26.20;99.90
61807;DHT22;47726;52.766;6.606;2022-08-03T08:30:07;26.30;99.90
61807;DHT22;47726;52.766;6.606;2022-08-03T08:32:33;26.40;99.90
61807;DHT22;47726;52.766;6.606;2022-08-03T08:34:59;26.40;99.90
61807;DHT22;47726;52.766;6.606;2022-08-03T08:37:24;26.50;99.90
61807;DHT22;47726;52.766;6.606;2022-08-03T08:39:50;26.60;99.90
61807;DHT22;47726;52.766;6.606;2022-08-03T08:42:16;26.80;99.90
61807;DHT22;47726;52.766;6.606;2022-08-03T08:44:41;26.80;99.80
61807;DHT22;47726;52.766;6.606;2022-08-03T08:47:08;27.00;99.90
61807;DHT22;47726;52.766;6.606;2022-08-03T08:49:35;27.10;99.90
61807;DHT22;47726;52.766;6.606;2022-08-03T08:52:03;27.30;99.50
61807;DHT22;47726;52.766;6.606;2022-08-03T08:54:30;27.30;99.70
61807;DHT22;47726;52.766;6.606;2022-08-03T08:57:01;27.50;99.30
61807;DHT22;47726;52.766;6.606;2022-08-03T08:59:27;27.60;98.40
61807;DHT22;47726;52.766;6.606;2022-08-03T09:01:57;27.70;98.40
61807;DHT22;47726;52.766;6.606;2022-08-03T09:04:23;27.70;98.40
61807;DHT22;47726;52.766;6.606;2022-08-03T09:06:50;27.90;98.60
61807;DHT22;47726;52.766;6.606;2022-08-03T09:09:16;28.00;98.30
61807;DHT22;47726;52.766;6.606;2022-08-03T09:11:42;28.10;97.60
61807;DHT22;47726;52.766;6.606;2022-08-03T09:14:09;28.20;97.60
61807;DHT22;47726;52.766;6.606;2022-08-03T09:16:34;28.10;96.80
61807;DHT22;47726;52.766;6.606;2022-08-03T09:19:11;28.20;96.80
61807;DHT22;47726;52.766;6.606;2022-08-03T09:21:38;28.30;97.20
61807;DHT22;47726;52.766;6.606;2022-08-03T09:24:05;28.50;96.80
61807;DHT22;47726;52.766;6.606;2022-08-03T09:26:33;28.60;96.50
61807;DHT22;47726;52.766;6.606;2022-08-03T09:29:02;28.80;96.00
61807;DHT22;47726;52.766;6.606;2022-08-03T09:34:00;28.80;95.00
61807;DHT22;47726;52.766;6.606;2022-08-03T09:36:45;28.70;94.60
61807;DHT22;47726;52.766;6.606;2022-08-03T09:39:16;28.80;95.20
61807;DHT22;47726;52.766;6.606;2022-08-03T09:41:45;28.90;94.90
61807;DHT22;47726;52.766;6.606;2022-08-03T09:44:11;29.00;94.70
61807;DHT22;47726;52.766;6.606;2022-08-03T09:46:51;29.10;94.70
61807;DHT22;47726;52.766;6.606;2022-08-03T09:49:17;29.10;93.50
61807;DHT22;47726;52.766;6.606;2022-08-03T09:51:43;29.10;93.80
61807;DHT22;47726;52.766;6.606;2022-08-03T09:54:09;29.10;94.00
61807;DHT22;47726;52.766;6.606;2022-08-03T09:56:42;29.20;94.00
61807;DHT22;47726;52.766;6.606;2022-08-03T09:59:13;29.40;93.60
61807;DHT22;47726;52.766;6.606;2022-08-03T10:01:47;29.40;93.40
61807;DHT22;47726;52.766;6.606;2022-08-03T10:04:14;29.40;92.70
61807;DHT22;47726;52.766;6.606;2022-08-03T10:06:43;29.40;92.50
61807;DHT22;47726;52.766;6.606;2022-08-03T10:11:36;29.40;92.50
61807;DHT22;47726;52.766;6.606;2022-08-03T10:14:04;29.60;93.20
61807;DHT22;47726;52.766;6.606;2022-08-03T10:16:37;29.80;93.60
61807;DHT22;47726;52.766;6.606;2022-08-03T10:19:05;30.00;92.60
61807;DHT22;47726;52.766;6.606;2022-08-03T10:21:36;30.10;92.60
61807;DHT22;47726;52.766;6.606;2022-08-03T10:24:05;30.20;90.70
61807;DHT22;47726;52.766;6.606;2022-08-03T10:26:36;30.20;91.40
61807;DHT22;47726;52.766;6.606;2022-08-03T10:29:03;30.10;89.90
61807;DHT22;47726;52.766;6.606;2022-08-03T10:31:38;30.00;90.00
61807;DHT22;47726;52.766;6.606;2022-08-03T10:34:10;30.00;90.70
61807;DHT22;47726;52.766;6.606;2022-08-03T10:36:39;29.90;88.90
61807;DHT22;47726;52.766;6.606;2022-08-03T10:39:05;29.90;89.40
61807;DHT22;47726;52.766;6.606;2022-08-03T10:41:35;29.80;87.50
61807;DHT22;47726;52.766;6.606;2022-08-03T10:44:05;29.70;87.90
61807;DHT22;47726;52.766;6.606;2022-08-03T10:46:33;29.90;89.30
61807;DHT22;47726;52.766;6.606;2022-08-03T10:48:59;29.90;87.80
61807;DHT22;47726;52.766;6.606;2022-08-03T10:51:26;30.00;87.20
61807;DHT22;47726;52.766;6.606;2022-08-03T10:53:56;30.10;88.20
61807;DHT22;47726;52.766;6.606;2022-08-03T10:59:16;30.20;86.40
61807;DHT22;47726;52.766;6.606;2022-08-03T11:01:54;30.30;86.50
61807;DHT22;47726;52.766;6.606;2022-08-03T11:04:21;30.30;83.90
61807;DHT22;47726;52.766;6.606;2022-08-03T11:07:24;30.40;84.50
61807;DHT22;47726;52.766;6.606;2022-08-03T11:09:54;30.50;84.80
61807;DHT22;47726;52.766;6.606;2022-08-03T11:12:28;30.40;84.20
61807;DHT22;47726;52.766;6.606;2022-08-03T11:14:55;30.50;83.00
61807;DHT22;47726;52.766;6.606;2022-08-03T11:17:22;30.50;80.60
61807;DHT22;47726;52.766;6.606;2022-08-03T11:19:49;30.60;81.00
61807;DHT22;47726;52.766;6.606;2022-08-03T11:22:16;30.70;81.40
61807;DHT22;47726;52.766;6.606;2022-08-03T11:29:59;30.90;77.90
61807;DHT22;47726;52.766;6.606;2022-08-03T11:35:15;30.90;75.80
61807;DHT22;47726;52.766;6.606;2022-08-03T11:40:42;31.10;74.10
61807;DHT22;47726;52.766;6.606;2022-08-03T11:48:40;31.10;74.30
61807;DHT22;47726;52.766;6.606;2022-08-03T11:53:59;31.10;75.00
61807;DHT22;47726;52.766;6.606;2022-08-03T11:56:26;31.10;73.50
61807;DHT22;47726;52.766;6.606;2022-08-03T11:58:54;31.10;71.50
61807;DHT22;47726;52.766;6.606;2022-08-03T12:01:22;31.10;72.20
61807;DHT22;47726;52.766;6.606;2022-08-03T12:03:48;31.10;69.80
61807;DHT22;47726;52.766;6.606;2022-08-03T12:06:15;31.10;71.50
61807;DHT22;47726;52.766;6.606;2022-08-03T12:08:42;31.20;71.70
61807;DHT22;47726;52.766;6.606;2022-08-03T12:11:10;31.30;73.40
61807;DHT22;47726;52.766;6.606;2022-08-03T12:13:47;31.30;71.20
61807;DHT22;47726;52.766;6.606;2022-08-03T12:18:44;31.30;70.80
61807;DHT22;47726;52.766;6.606;2022-08-03T12:21:10;31.40;70.70
61807;DHT22;47726;52.766;6.606;2022-08-03T12:23:37;31.40;69.70
61807;DHT22;47726;52.766;6.606;2022-08-03T12:26:08;31.30;68.80
61807;DHT22;47726;52.766;6.606;2022-08-03T12:28:35;31.30;71.00
61807;DHT22;47726;52.766;6.606;2022-08-03T12:31:05;31.40;70.70
61807;DHT22;47726;52.766;6.606;2022-08-03T12:33:34;31.40;70.20
61807;DHT22;47726;52.766;6.606;2022-08-03T12:36:18;31.50;69.40
61807;DHT22;47726;52.766;6.606;2022-08-03T12:38:54;31.40;68.00
61807;DHT22;47726;52.766;6.606;2022-08-03T12:41:31;31.40;68.30
61807;DHT22;47726;52.766;6.606;2022-08-03T12:43:57;31.50;68.50
61807;DHT22;47726;52.766;6.606;2022-08-03T12:46:29;31.40;67.70
61807;DHT22;47726;52.766;6.606;2022-08-03T12:51:26;31.50;68.50
61807;DHT22;47726;52.766;6.606;2022-08-03T12:53:53;31.60;68.20
61807;DHT22;47726;52.766;6.606;2022-08-03T12:56:19;31.50;66.80
61807;DHT22;47726;52.766;6.606;2022-08-03T12:58:45;31.50;68.10
61807;DHT22;47726;52.766;6.606;2022-08-03T13:01:12;31.60;70.60
61807;DHT22;47726;52.766;6.606;2022-08-03T13:03:43;31.70;70.90
61807;DHT22;47726;52.766;6.606;2022-08-03T13:06:23;31.80;68.70
61807;DHT22;47726;52.766;6.606;2022-08-03T13:09:00;31.90;70.40
61807;DHT22;47726;52.766;6.606;2022-08-03T13:11:27;32.00;71.60
61807;DHT22;47726;52.766;6.606;2022-08-03T13:13:53;32.10;71.10
61807;DHT22;47726;52.766;6.606;2022-08-03T13:16:21;32.10;70.60
61807;DHT22;47726;52.766;6.606;2022-08-03T13:18:48;32.20;69.80
61807;DHT22;47726;52.766;6.606;2022-08-03T13:21:15;32.20;69.10
61807;DHT22;47726;52.766;6.606;2022-08-03T13:23:41;32.20;69.60
61807;DHT22;47726;52.766;6.606;2022-08-03T13:26:08;32.20;68.00
61807;DHT22;47726;52.766;6.606;2022-08-03T13:28:33;32.20;67.40
61807;DHT22;47726;52.766;6.606;2022-08-03T13:30:59;32.10;67.90
61807;DHT22;47726;52.766;6.606;2022-08-03T13:33:28;32.10;69.20
61807;DHT22;47726;52.766;6.606;2022-08-03T13:35:54;32.10;67.90
61807;DHT22;47726;52.766;6.606;2022-08-03T13:38:20;32.20;68.90
61807;DHT22;47726;52.766;6.606;2022-08-03T13:40:46;32.20;68.10
61807;DHT22;47726;52.766;6.606;2022-08-03T13:43:11;32.20;67.20
61807;DHT22;47726;52.766;6.606;2022-08-03T13:45:37;32.00;66.00
61807;DHT22;47726;52.766;6.606;2022-08-03T13:48:03;32.00;66.90
61807;DHT22;47726;52.766;6.606;2022-08-03T13:50:29;32.00;67.30
61807;DHT22;47726;52.766;6.606;2022-08-03T13:52:57;32.00;66.40
61807;DHT22;47726;52.766;6.606;2022-08-03T13:55:23;31.80;64.40
61807;DHT22;47726;52.766;6.606;2022-08-03T13:57:49;31.70;66.80
61807;DHT22;47726;52.766;6.606;2022-08-03T14:00:16;31.70;66.10
61807;DHT22;47726;52.766;6.606;2022-08-03T14:02:42;31.70;65.70
61807;DHT22;47726;52.766;6.606;2022-08-03T14:05:08;31.80;66.60
61807;DHT22;47726;52.766;6.606;2022-08-03T14:07:34;31.80;66.80
61807;DHT22;47726;52.766;6.606;2022-08-03T14:09:59;31.90;66.60
61807;DHT22;47726;52.766;6.606;2022-08-03T14:12:26;31.90;66.40
61807;DHT22;47726;52.766;6.606;2022-08-03T14:14:52;31.90;65.10
61807;DHT22;47726;52.766;6.606;2022-08-03T14:17:18;31.90;66.10
61807;DHT22;47726;52.766;6.606;2022-08-03T14:19:44;31.90;66.90
61807;DHT22;47726;52.766;6.606;2022-08-03T14:22:10;31.90;65.00
61807;DHT22;47726;52.766;6.606;2022-08-03T14:24:35;31.70;64.30
61807;DHT22;47726;52.766;6.606;2022-08-03T14:27:01;31.60;63.90
61807;DHT22;47726;52.766;6.606;2022-08-03T14:29:27;31.60;64.60
61807;DHT22;47726;52.766;6.606;2022-08-03T14:31:52;31.50;64.20
61807;DHT22;47726;52.766;6.606;2022-08-03T14:34:18;31.40;64.50
61807;DHT22;47726;52.766;6.606;2022-08-03T14:36:44;31.40;64.80
61807;DHT22;47726;52.766;6.606;2022-08-03T14:39:12;31.40;64.10
61807;DHT22;47726;52.766;6.606;2022-08-03T14:41:38;31.50;65.30
61807;DHT22;47726;52.766;6.606;2022-08-03T14:44:04;31.40;64.10
61807;DHT22;47726;52.766;6.606;2022-08-03T14:46:30;31.30;63.80
61807;DHT22;47726;52.766;6.606;2022-08-03T14:48:57;31.20;64.10
61807;DHT22;47726;52.766;6.606;2022-08-03T14:51:23;31.10;64.10
61807;DHT22;47726;52.766;6.606;2022-08-03T14:53:49;31.10;65.30
61807;DHT22;47726;52.766;6.606;2022-08-03T14:56:15;31.00;63.60
61807;DHT22;47726;52.766;6.606;2022-08-03T14:58:40;31.10;64.60
61807;DHT22;47726;52.766;6.606;2022-08-03T15:01:06;31.10;65.00
61807;DHT22;47726;52.766;6.606;2022-08-03T15:03:32;31.10;63.80
61807;DHT22;47726;52.766;6.606;2022-08-03T15:05:58;31.20;63.80
61807;DHT22;47726;52.766;6.606;2022-08-03T15:08:25;31.10;62.70
61807;DHT22;47726;52.766;6.606;2022-08-03T15:10:51;31.10;61.60
61807;DHT22;47726;52.766;6.606;2022-08-03T15:13:18;31.20;62.60
61807;DHT22;47726;52.766;6.606;2022-08-03T15:15:44;31.20;61.60
61807;DHT22;47726;52.766;6.606;2022-08-03T15:18:09;31.20;60.00
61807;DHT22;47726;52.766;6.606;2022-08-03T15:20:35;31.20;60.10
61807;DHT22;47726;52.766;6.606;2022-08-03T15:23:01;31.10;60.10
61807;DHT22;47726;52.766;6.606;2022-08-03T15:25:26;31.10;60.30
61807;DHT22;47726;52.766;6.606;2022-08-03T15:27:53;30.90;59.40
61807;DHT22;47726;52.766;6.606;2022-08-03T15:30:19;30.90;60.00
61807;DHT22;47726;52.766;6.606;2022-08-03T15:32:44;30.80;61.10
61807;DHT22;47726;52.766;6.606;2022-08-03T15:35:10;30.80;61.50
61807;DHT22;47726;52.766;6.606;2022-08-03T15:37:35;30.70;61.40
61807;DHT22;47726;52.766;6.606;2022-08-03T15:40:01;30.80;61.50
61807;DHT22;47726;52.766;6.606;2022-08-03T15:42:29;30.80;61.90
61807;DHT22;47726;52.766;6.606;2022-08-03T15:44:55;30.80;61.50
61807;DHT22;47726;52.766;6.606;2022-08-03T15:47:20;30.70;61.20
61807;DHT22;47726;52.766;6.606;2022-08-03T15:49:46;30.70;61.40
61807;DHT22;47726;52.766;6.606;2022-08-03T15:52:12;30.60;61.60
61807;DHT22;47726;52.766;6.606;2022-08-03T15:54:37;30.60;62.80
61807;DHT22;47726;52.766;6.606;2022-08-03T15:57:03;30.70;62.70
61807;DHT22;47726;52.766;6.606;2022-08-03T15:59:29;30.70;62.70
61807;DHT22;47726;52.766;6.606;2022-08-03T16:01:54;30.70;63.40
61807;DHT22;47726;52.766;6.606;2022-08-03T16:04:21;30.70;62.80
61807;DHT22;47726;52.766;6.606;2022-08-03T16:06:47;30.70;62.40
61807;DHT22;47726;52.766;6.606;2022-08-03T16:09:13;30.70;63.00
61807;DHT22;47726;52.766;6.606;2022-08-03T16:11:38;30.70;63.60
61807;DHT22;47726;52.766;6.606;2022-08-03T16:14:04;30.70;63.80
61807;DHT22;47726;52.766;6.606;2022-08-03T16:16:30;30.70;63.80
61807;DHT22;47726;52.766;6.606;2022-08-03T16:18:55;30.70;64.60